Time;durP1;ratioP1;P1;durP2;ratioP2;P2;SDS_P1;SDS_P2;PMS_P1;PMS_P2;Temp;Humidity;BMP_temperature;BMP_pressure;BME280_temperature;BME280_humidity;BME280_pressure;Samples;Min_cycle;Max_cycle;Signal;HPM_P1;HPM_P2
2021/05/04 00:01:12;;;;;;;14.35;9.82;;;11.40;89.20;;;;;;5051648;28;20037;-69
2021/05/04 00:03:38;;;;;;;19.55;10.80;;;11.30;90.00;;;;;;5052936;28;20104;-70
2021/05/04 00:06:04;;;;;;;18.55;10.43;;;11.30;90.60;;;;;;5051636;28;20040;-69
2021/05/04 00:08:30;;;;;;;17.95;9.95;;;11.30;90.30;;;;;;5052921;28;20484;-70
2021/05/04 00:10:56;;;;;;;16.42;10.85;;;11.20;90.20;;;;;;5050929;28;20123;-70
2021/05/04 00:13:22;;;;;;;18.95;11.30;;;11.20;90.90;;;;;;5052304;28;20021;-70
2021/05/04 00:15:47;;;;;;;19.95;11.32;;;11.20;91.00;;;;;;5052072;28;20039;-72
2021/05/04 00:18:13;;;;;;;15.88;9.93;;;11.20;90.70;;;;;;5052839;28;20418;-71
2021/05/04 00:20:39;;;;;;;14.52;10.00;;;11.20;90.50;;;;;;5051105;28;20772;-69
2021/05/04 00:23:05;;;;;;;15.50;9.15;;;11.10;90.60;;;;;;5052658;28;20025;-70
2021/05/04 00:25:31;;;;;;;22.63;12.07;;;11.00;90.80;;;;;;5052252;28;20104;-69
2021/05/04 00:27:57;;;;;;;23.52;14.30;;;11.10;91.30;;;;;;5052578;28;20064;-70
2021/05/04 00:30:23;;;;;;;24.00;15.18;;;11.10;91.20;;;;;;5052587;28;20029;-72
2021/05/04 00:32:49;;;;;;;27.98;16.08;;;11.10;92.10;;;;;;5051316;28;20078;-70
2021/05/04 00:35:15;;;;;;;23.17;16.30;;;11.10;91.90;;;;;;5052640;28;20037;-71
2021/05/04 00:37:40;;;;;;;22.85;14.80;;;11.10;92.80;;;;;;5051380;28;20025;-71
2021/05/04 00:40:07;;;;;;;28.00;15.07;;;11.00;92.40;;;;;;5052586;28;20037;-71
2021/05/04 00:42:33;;;;;;;26.70;15.20;;;11.00;93.20;;;;;;5052550;28;20462;-72
2021/05/04 00:44:59;;;;;;;26.63;15.52;;;10.90;93.40;;;;;;5050911;28;20029;-71
2021/05/04 00:47:24;;;;;;;25.67;14.13;;;10.90;93.30;;;;;;5051211;28;20025;-71
2021/05/04 00:49:50;;;;;;;26.95;13.77;;;10.80;93.40;;;;;;5052517;28;20428;-70
2021/05/04 00:52:16;;;;;;;32.83;14.10;;;10.70;93.60;;;;;;5052357;28;20112;-72
2021/05/04 00:54:42;;;;;;;24.45;14.05;;;10.80;93.50;;;;;;5051141;28;20119;-70
2021/05/04 00:57:11;;;;;;;29.30;14.32;;;10.70;94.00;;;;;;5071635;28;20457;-69
2021/05/04 00:59:37;;;;;;;30.08;14.90;;;10.70;94.30;;;;;;5072516;28;20024;-73
2021/05/04 01:02:03;;;;;;;25.30;14.38;;;10.60;94.60;;;;;;5054447;28;20032;-71
2021/05/04 01:04:31;;;;;;;26.77;14.80;;;10.70;94.90;;;;;;5055420;28;20041;-72
2021/05/04 01:06:58;;;;;;;28.25;13.98;;;10.60;95.90;;;;;;5058068;28;20029;-72
2021/05/04 01:09:24;;;;;;;22.85;13.30;;;10.60;96.00;;;;;;5076000;28;20028;-70
2021/05/04 01:11:50;;;;;;;30.88;14.43;;;10.60;95.80;;;;;;5091438;28;20040;-69
2021/05/04 01:14:16;;;;;;;25.33;14.55;;;;;;;;;;5076205;28;20032;-71
2021/05/04 01:16:46;;;;;;;23.85;13.85;;;;;;;;;;5057802;28;20451;-70
2021/05/04 01:19:12;;;;;;;25.98;15.80;;;;;;;;;;5075879;28;20106;-72
2021/05/04 01:21:38;;;;;;;21.90;14.73;;;;;;;;;;5075782;28;20119;-70
2021/05/04 01:24:04;;;;;;;26.83;16.17;;;;;;;;;;5057685;28;20050;-70
2021/05/04 01:26:31;;;;;;;28.70;14.80;;;;;;;;;;5075626;28;20029;-71
2021/05/04 01:28:57;;;;;;;27.17;14.52;;;;;;;;;;5075661;28;20016;-71
2021/05/04 01:31:23;;;;;;;26.98;14.80;;;;;;;;;;5075425;28;20476;-70
2021/05/04 01:33:49;;;;;;;22.77;12.50;;;;;;;;;;5057564;28;20089;-70
2021/05/04 01:36:16;;;;;;;20.85;13.70;;;;;;;;;;5057488;28;20108;-70
2021/05/04 01:38:43;;;;;;;21.42;13.75;;;;;;;;;;5075491;28;20056;-70
2021/05/04 01:41:09;;;;;;;20.67;12.95;;;;;;;;;;5075303;28;20036;-70
2021/05/04 01:43:35;;;;;;;19.83;13.65;;;;;;;;;;5057354;28;20027;-69
2021/05/04 01:46:02;;;;;;;18.15;13.35;;;;;;;;;;5075347;28;20052;-70
2021/05/04 01:48:28;;;;;;;19.70;12.98;;;;;;;;;;5075316;28;20074;-69
2021/05/04 01:50:54;;;;;;;26.63;13.38;;;;;;;;;;5075182;28;20044;-70
2021/05/04 01:53:20;;;;;;;24.30;12.05;;;;;;;;;;5075190;28;20524;-69
2021/05/04 01:55:46;;;;;;;22.13;14.38;;;;;;;;;;5074717;28;20044;-70
2021/05/04 01:58:13;;;;;;;26.27;12.48;;;;;;;;;;5075118;28;20032;-69
2021/05/04 02:00:39;;;;;;;23.77;13.02;;;;;;;;;;5075115;28;20036;-69
2021/05/04 02:03:05;;;;;;;16.92;12.32;;;;;;;;;;5056971;28;20485;-70
2021/05/04 02:05:32;;;;;;;21.30;13.77;;;;;;;;;;5074829;28;20027;-70
2021/05/04 02:07:58;;;;;;;21.90;12.45;;;;;;;;;;5074775;28;20503;-69
2021/05/04 02:10:24;;;;;;;18.45;11.25;;;;;;;;;;5074386;28;20418;-69
2021/05/04 02:12:51;;;;;;;18.08;12.75;;;;;;;;;;5056055;28;20499;-68
2021/05/04 02:15:17;;;;;;;22.27;13.98;;;;;;;;;;5073922;28;20107;-70
2021/05/04 02:17:43;;;;;;;25.45;14.05;;;;;;;;;;5074245;28;20027;-69
2021/05/04 02:20:10;;;;;;;18.65;13.25;;;;;;;;;;5074508;28;20111;-68
2021/05/04 02:22:37;;;;;;;25.70;14.20;;;;;;;;;;5074477;28;20033;-72
2021/05/04 02:25:04;;;;;;;20.33;13.05;;;;;;;;;;5074747;28;20453;-71
2021/05/04 02:27:30;;;;;;;23.80;11.88;;;;;;;;;;5074505;28;20028;-69
2021/05/04 02:29:56;;;;;;;18.45;12.18;;;;;;;;;;5074439;28;20024;-67
2021/05/04 02:32:23;;;;;;;17.90;12.30;;;;;;;;;;5074132;28;20529;-71
2021/05/04 02:34:49;;;;;;;22.70;13.80;;;;;;;;;;5074148;28;20024;-69
2021/05/04 02:37:15;;;;;;;18.80;12.73;;;;;;;;;;5074253;28;20107;-70
2021/05/04 02:39:41;;;;;;;17.40;11.82;;;;;;;;;;5074218;28;20107;-69
2021/05/04 02:42:07;;;;;;;18.38;11.63;;;;;;;;;;5073721;28;20035;-71
2021/05/04 02:44:33;;;;;;;18.00;12.30;;;;;;;;;;5055812;28;20055;-69
2021/05/04 02:47:00;;;;;;;16.52;11.07;;;;;;;;;;5073549;28;20024;-70
2021/05/04 02:49:26;;;;;;;17.75;11.52;;;;;;;;;;5073342;28;20357;-71
2021/05/04 02:51:52;;;;;;;19.25;12.82;;;;;;;;;;5073911;28;20075;-70
2021/05/04 02:54:18;;;;;;;17.00;12.38;;;;;;;;;;5073928;28;20060;-69
2021/05/04 02:56:44;;;;;;;18.08;11.98;;;;;;;;;;5073358;28;20516;-68
2021/05/04 02:59:11;;;;;;;22.02;11.63;;;;;;;;;;5073921;28;20030;-71
2021/05/04 03:01:37;;;;;;;18.27;11.27;;;;;;;;;;5073847;28;20036;-70
2021/05/04 03:04:03;;;;;;;19.45;11.90;;;;;;;;;;5073766;28;20090;-68
2021/05/04 03:06:30;;;;;;;21.75;10.85;;;;;;;;;;5055759;28;20111;-70
2021/05/04 03:08:58;;;;;;;24.55;11.85;;;;;;;;;;5073643;28;20025;-70
2021/05/04 03:11:24;;;;;;;14.00;11.73;;;;;;;;;;5073403;28;20034;-68
2021/05/04 03:13:51;;;;;;;17.85;12.63;;;;;;;;;;5055548;28;20170;-70
2021/05/04 03:16:16;;;;;;;22.63;15.13;;;9.50;99.90;;;;;;5055641;28;20473;-69
2021/05/04 03:18:42;;;;;;;26.00;13.43;;;9.50;99.90;;;;;;5055539;28;20028;-71
2021/05/04 03:21:08;;;;;;;22.65;13.50;;;9.50;99.90;;;;;;5073510;28;20032;-70
2021/05/04 03:23:34;;;;;;;19.30;12.98;;;9.40;99.90;;;;;;5073151;28;20024;-71
2021/05/04 03:25:59;;;;;;;20.48;13.35;;;9.40;99.90;;;;;;5073157;28;20032;-70
2021/05/04 03:28:26;;;;;;;21.35;12.68;;;9.40;99.90;;;;;;5072851;28;20488;-68
2021/05/04 03:30:52;;;;;;;25.02;12.25;;;9.40;99.90;;;;;;5055330;28;20074;-69
2021/05/04 03:33:17;;;;;;;22.52;11.82;;;9.40;99.90;;;;;;5073287;28;20032;-69
2021/05/04 03:35:43;;;;;;;22.60;11.02;;;9.40;99.90;;;;;;5055331;28;20031;-72
2021/05/04 03:38:10;;;;;;;26.35;11.77;;;9.40;99.90;;;;;;5073131;28;20029;-69
2021/05/04 03:40:36;;;;;;;25.75;12.15;;;9.40;99.90;;;;;;5055287;28;20476;-72
2021/05/04 03:43:03;;;;;;;21.55;11.23;;;9.40;99.90;;;;;;5073223;28;20025;-69
2021/05/04 03:45:29;;;;;;;26.27;12.40;;;9.40;99.90;;;;;;5073422;28;20017;-70
2021/05/04 03:47:55;;;;;;;19.30;10.88;;;9.40;99.90;;;;;;5073152;28;20036;-71
2021/05/04 03:50:23;;;;;;;20.67;11.32;;;9.30;99.70;;;;;;5055004;28;20033;-70
2021/05/04 03:52:51;;;;;;;17.92;11.93;;;9.30;99.90;;;;;;5073064;28;20029;-70
2021/05/04 03:55:17;;;;;;;20.15;12.32;;;9.30;99.90;;;;;;5072744;28;20052;-70
2021/05/04 03:57:43;;;;;;;19.15;11.93;;;9.30;99.90;;;;;;5073080;28;20025;-70
2021/05/04 04:00:11;;;;;;;19.40;12.02;;;9.40;99.90;;;;;;5055064;28;20088;-70
2021/05/04 04:02:37;;;;;;;40.47;12.68;;;9.40;99.90;;;;;;5072989;28;20039;-70
2021/05/04 04:05:04;;;;;;;23.35;11.70;;;9.50;99.90;;;;;;5072974;28;20377;-70
2021/05/04 04:07:31;;;;;;;24.58;12.90;;;9.50;99.90;;;;;;5072638;28;20524;-70
2021/05/04 04:09:57;;;;;;;23.10;12.90;;;9.50;99.90;;;;;;5072685;28;20571;-68
2021/05/04 04:12:24;;;;;;;23.92;12.63;;;9.50;99.90;;;;;;5072839;28;20039;-71
2021/05/04 04:14:51;;;;;;;23.50;13.38;;;9.60;99.90;;;;;;5072594;28;20039;-73
2021/05/04 04:17:17;;;;;;;19.90;11.90;;;9.60;99.90;;;;;;5072907;28;20091;-71
2021/05/04 04:19:43;;;;;;;21.63;12.57;;;9.60;99.90;;;;;;5072897;28;20025;-70
2021/05/04 04:22:09;;;;;;;22.77;13.45;;;9.70;99.90;;;;;;5072839;28;20427;-70
2021/05/04 04:24:35;;;;;;;21.15;12.07;;;9.70;99.90;;;;;;5054750;28;20039;-69
2021/05/04 04:27:01;;;;;;;42.13;13.70;;;9.80;99.90;;;;;;5054680;28;20407;-70
2021/05/04 04:29:26;;;;;;;38.40;13.98;;;9.80;99.90;;;;;;5072737;28;20029;-70
2021/05/04 04:31:53;;;;;;;42.78;23.98;;;9.80;99.90;;;;;;5072584;28;20036;-69
2021/05/04 04:34:19;;;;;;;62.70;39.88;;;9.90;99.90;;;;;;5072707;28;20031;-69
2021/05/04 04:36:45;;;;;;;52.95;36.72;;;9.90;99.90;;;;;;5072602;28;20035;-69
2021/05/04 04:39:11;;;;;;;39.58;24.00;;;10.00;99.90;;;;;;5073569;28;20033;-69
2021/05/04 04:41:37;;;;;;;24.67;16.23;;;10.10;99.90;;;;;;5058551;28;20066;-70
2021/05/04 04:44:06;;;;;;;17.05;11.93;;;10.10;99.80;;;;;;5058199;28;20055;-71
2021/05/04 04:46:41;;;;;;;78.55;14.90;;;10.20;98.80;;;;;;5076421;28;20051;-70
2021/05/04 04:49:12;;;;;;;16.05;10.77;;;10.30;99.20;;;;;;5076645;28;20032;-70
2021/05/04 04:51:38;;;;;;;14.82;9.52;;;10.30;97.70;;;;;;5076293;28;20506;-71
2021/05/04 04:54:04;;;;;;;17.85;11.40;;;10.40;98.00;;;;;;5076195;28;20059;-71
2021/05/04 04:56:31;;;;;;;21.25;11.48;;;10.40;97.40;;;;;;5075667;28;20075;-70
2021/05/04 04:58:56;;;;;;;21.33;12.68;;;10.40;97.40;;;;;;5076074;28;20028;-72
2021/05/04 05:01:22;;;;;;;20.80;12.05;;;10.50;96.60;;;;;;5076132;28;20051;-70
2021/05/04 05:03:48;;;;;;;16.45;10.63;;;10.50;96.40;;;;;;5058105;28;20024;-69
2021/05/04 05:06:14;;;;;;;37.55;12.10;;;10.60;96.70;;;;;;5057993;28;20032;-71
2021/05/04 05:08:40;;;;;;;19.23;11.50;;;10.70;95.80;;;;;;5057697;28;20120;-70
2021/05/04 05:11:06;;;;;;;29.40;16.63;;;10.80;95.40;;;;;;5076109;28;20032;-71
2021/05/04 05:13:32;;;;;;;94.38;32.60;;;10.90;96.00;;;;;;5076186;28;20485;-71
2021/05/04 05:15:57;;;;;;;44.92;32.63;;;11.00;96.20;;;;;;5057885;28;20070;-71
2021/05/04 05:18:23;;;;;;;59.35;35.08;;;11.00;95.50;;;;;;5075852;28;20032;-71
2021/05/04 05:20:49;;;;;;;56.35;37.53;;;11.10;94.60;;;;;;5075593;28;20420;-71
2021/05/04 05:23:16;;;;;;;64.80;38.47;;;11.20;95.60;;;;;;5075735;28;20028;-71
2021/05/04 05:25:42;;;;;;;44.10;30.52;;;;;;;;;;5057824;28;20361;-70
2021/05/04 05:28:08;;;;;;;30.40;18.73;;;11.40;95.70;;;;;;5057703;28;20071;-70
2021/05/04 05:30:34;;;;;;;32.08;15.60;;;11.40;96.60;;;;;;5057586;28;20052;-71
2021/05/04 05:33:00;;;;;;;32.35;23.10;;;11.50;97.30;;;;;;5057546;28;20037;-71
2021/05/04 05:35:26;;;;;;;53.55;40.83;;;11.60;97.70;;;;;;5075501;28;20069;-70
2021/05/04 05:37:52;;;;;;;60.33;48.05;;;11.70;97.00;;;;;;5075343;28;20120;-72
2021/05/04 05:40:18;;;;;;;52.17;42.30;;;11.80;97.00;;;;;;5057388;28;20123;-71
2021/05/04 05:42:44;;;;;;;42.53;36.28;;;11.90;96.40;;;;;;5057226;28;20025;-72
2021/05/04 05:45:10;;;;;;;47.15;34.90;;;12.00;97.90;;;;;;5074952;28;20492;-71
2021/05/04 05:47:36;;;;;;;34.67;25.23;;;12.10;96.80;;;;;;5057219;28;20040;-71
2021/05/04 05:50:04;;;;;;;32.95;23.08;;;12.10;95.60;;;;;;5075164;28;20031;-71
2021/05/04 05:52:29;;;;;;;32.78;27.05;;;12.30;96.00;;;;;;5075008;28;20047;-70
2021/05/04 05:54:55;;;;;;;27.67;22.02;;;12.40;96.70;;;;;;5074892;28;20464;-71
2021/05/04 05:57:21;;;;;;;29.45;23.63;;;12.40;95.90;;;;;;5075189;28;20060;-70
2021/05/04 05:59:47;;;;;;;22.25;16.33;;;12.60;97.00;;;;;;5074790;28;20033;-70
2021/05/04 06:02:13;;;;;;;16.20;13.20;;;12.70;96.90;;;;;;5074856;28;20031;-70
2021/05/04 06:04:39;;;;;;;62.65;15.23;;;12.70;96.20;;;;;;5074989;28;20028;-70
2021/05/04 06:07:05;;;;;;;25.20;17.63;;;12.80;95.90;;;;;;5074887;28;20027;-70
2021/05/04 06:09:31;;;;;;;15.93;11.30;;;12.90;95.10;;;;;;5074502;28;20024;-69
2021/05/04 06:11:57;;;;;;;16.40;11.85;;;13.00;94.40;;;;;;5074848;28;20028;-71
2021/05/04 06:14:22;;;;;;;20.33;10.52;;;13.10;94.50;;;;;;5056835;28;20052;-70
2021/05/04 06:16:48;;;;;;;15.13;8.85;;;13.20;95.40;;;;;;5074700;28;20403;-68
2021/05/04 06:19:14;;;;;;;12.30;7.93;;;13.20;93.60;;;;;;5074631;28;20067;-71
2021/05/04 06:21:40;;;;;;;12.95;8.43;;;13.30;92.80;;;;;;5056644;28;20036;-69
2021/05/04 06:24:06;;;;;;;18.20;7.95;;;13.40;93.60;;;;;;5074370;28;20418;-70
2021/05/04 06:26:32;;;;;;;11.90;7.28;;;13.50;93.10;;;;;;5074485;28;20028;-70
2021/05/04 06:28:58;;;;;;;9.80;6.65;;;13.60;93.10;;;;;;5074355;28;20033;-69
2021/05/04 06:31:25;;;;;;;12.52;6.55;;;13.60;92.20;;;;;;5056372;28;20473;-69
2021/05/04 06:33:50;;;;;;;10.80;7.10;;;13.70;91.90;;;;;;5074318;28;20480;-70
2021/05/04 06:36:17;;;;;;;12.95;7.05;;;13.80;89.60;;;;;;5074029;28;20029;-71
2021/05/04 06:38:42;;;;;;;12.88;6.78;;;13.80;91.00;;;;;;5056257;28;20025;-71
2021/05/04 06:41:08;;;;;;;10.55;5.97;;;13.90;89.70;;;;;;5074200;28;20034;-71
2021/05/04 06:43:34;;;;;;;15.13;8.70;;;14.00;88.20;;;;;;5073820;28;20372;-70
2021/05/04 06:46:03;;;;;;;14.23;6.88;;;14.10;85.80;;;;;;5056035;28;20028;-70
2021/05/04 06:48:29;;;;;;;22.25;7.50;;;14.20;88.00;;;;;;5073880;28;20032;-71
2021/05/04 06:50:57;;;;;;;10.68;5.97;;;14.20;84.80;;;;;;5074033;28;20042;-70
2021/05/04 06:53:24;;;;;;;15.10;6.38;;;14.40;85.40;;;;;;5073798;28;20169;-71
2021/05/04 06:55:50;;;;;;;10.20;6.38;;;14.40;85.00;;;;;;5051723;28;20052;-69
2021/05/04 06:58:29;;;;;;;10.15;5.68;;;14.60;86.10;;;;;;5051216;28;20032;-73
2021/05/04 07:01:01;;;;;;;29.30;7.00;;;14.70;85.70;;;;;;5054573;28;20033;-71
2021/05/04 07:03:27;;;;;;;14.73;6.72;;;14.80;79.50;;;;;;5049789;28;20476;-71
2021/05/04 07:05:53;;;;;;;12.30;6.65;;;14.90;81.30;;;;;;5051926;28;20385;-71
2021/05/04 07:08:19;;;;;;;12.05;5.95;;;15.00;82.30;;;;;;5052225;28;20440;-71
2021/05/04 07:10:45;;;;;;;11.27;6.30;;;15.10;82.50;;;;;;5052386;28;20065;-71
2021/05/04 07:13:18;;;;;;;13.52;7.57;;;15.20;81.60;;;;;;5053561;28;20032;-71
2021/05/04 07:15:45;;;;;;;13.05;7.28;;;15.20;82.20;;;;;;5053665;28;20036;-70
2021/05/04 07:18:11;;;;;;;13.35;6.50;;;15.40;80.10;;;;;;5052594;28;20373;-71
2021/05/04 07:20:38;;;;;;;12.43;6.50;;;15.50;75.90;;;;;;5052165;28;20366;-71
2021/05/04 07:23:10;;;;;;;12.80;6.43;;;15.60;80.40;;;;;;5053371;28;20025;-69
2021/05/04 07:25:42;;;;;;;12.00;6.38;;;15.70;73.70;;;;;;5053551;28;20029;-70
2021/05/04 07:28:08;;;;;;;14.25;8.50;;;15.80;74.10;;;;;;5053217;28;20025;-70
2021/05/04 07:30:39;;;;;;;13.80;7.10;;;16.00;77.10;;;;;;5051735;28;20076;-70
2021/05/04 07:33:05;;;;;;;12.20;8.80;;;16.10;75.10;;;;;;5053288;28;20029;-71
2021/05/04 07:35:30;;;;;;;18.60;7.43;;;16.10;71.10;;;;;;5053495;28;20799;-72
2021/05/04 07:37:56;;;;;;;17.90;6.45;;;16.30;72.10;;;;;;5053209;28;20051;-70
2021/05/04 07:40:23;;;;;;;10.80;5.80;;;16.40;73.20;;;;;;5051282;28;20527;-71
2021/05/04 07:42:49;;;;;;;17.70;5.32;;;16.50;70.00;;;;;;5053295;28;20029;-71
2021/05/04 07:45:15;;;;;;;10.75;5.28;;;16.60;68.20;;;;;;5053264;28;20452;-70
2021/05/04 07:47:42;;;;;;;14.45;6.22;;;16.80;68.90;;;;;;5051557;28;20037;-72
2021/05/04 07:50:11;;;;;;;12.30;5.63;;;16.80;68.50;;;;;;5051523;28;20025;-70
2021/05/04 07:52:39;;;;;;;24.60;6.22;;;16.90;69.30;;;;;;5052770;28;20028;-70
2021/05/04 07:55:06;;;;;;;9.63;5.10;;;17.10;68.90;;;;;;5053243;28;20057;-71
2021/05/04 07:57:35;;;;;;;16.20;5.05;;;17.10;66.70;;;;;;5073102;28;20415;-71
2021/05/04 08:00:00;;;;;;;14.70;5.50;;;17.30;66.10;;;;;;5073070;28;20085;-71
2021/05/04 08:02:29;;;;;;;6.07;4.32;;;17.40;64.70;;;;;;5072946;28;20036;-70
2021/05/04 08:04:55;;;;;;;9.73;4.97;;;17.40;64.50;;;;;;5072891;28;20070;-72
2021/05/04 08:07:21;;;;;;;14.43;4.53;;;17.60;65.70;;;;;;5073164;28;20350;-70
2021/05/04 08:09:49;;;;;;;10.15;4.57;;;17.70;58.90;;;;;;5088408;28;20457;-69
2021/05/04 08:12:15;;;;;;;11.05;4.60;;;17.70;61.60;;;;;;5053861;28;20071;-69
2021/05/04 08:14:41;;;;;;;7.13;4.13;;;17.90;61.60;;;;;;5074708;28;20037;-73
2021/05/04 08:17:12;;;;;;;8.70;4.72;;;17.90;60.00;;;;;;5058658;28;20037;-72
2021/05/04 08:19:38;;;;;;;11.82;4.72;;;18.00;63.50;;;;;;5077020;28;20507;-74
2021/05/04 08:22:04;;;;;;;10.13;4.53;;;18.20;62.40;;;;;;5058975;28;20060;-72
2021/05/04 08:24:30;;;;;;;11.35;3.65;;;18.30;59.80;;;;;;5076764;28;20025;-73
2021/05/04 08:26:56;;;;;;;54.35;5.88;;;18.50;61.90;;;;;;5058738;28;20028;-74
2021/05/04 08:29:22;;;;;;;11.65;4.88;;;18.70;63.90;;;;;;5092353;28;20027;-72
2021/05/04 08:31:51;;;;;;;11.98;4.75;;;18.80;59.40;;;;;;5076998;28;20052;-73
2021/05/04 08:34:17;;;;;;;10.55;4.70;;;18.80;57.00;;;;;;5059076;28;20032;-74
2021/05/04 08:36:42;;;;;;;11.25;4.05;;;18.90;59.10;;;;;;5092191;28;20025;-74
2021/05/04 08:39:08;;;;;;;8.30;4.20;;;19.10;59.60;;;;;;5058575;28;20032;-74
2021/05/04 08:41:35;;;;;;;9.05;4.30;;;19.20;57.50;;;;;;5058016;28;20650;-73
2021/05/04 08:44:01;;;;;;;15.90;4.40;;;19.30;57.70;;;;;;5076451;28;20078;-72
2021/05/04 08:46:34;;;;;;;13.98;4.82;;;19.50;59.70;;;;;;5058640;28;20024;-71
2021/05/04 08:49:02;;;;;;;11.20;3.78;;;19.60;60.20;;;;;;5092070;28;20060;-73
2021/05/04 08:51:28;;;;;;;7.78;4.50;;;19.80;57.10;;;;;;5034051;28;20041;-72
2021/05/04 08:53:54;;;;;;;8.88;3.65;;;19.90;58.40;;;;;;5037911;28;20131;-71
2021/05/04 08:56:20;;;;;;;7.63;3.55;;;20.10;56.70;;;;;;5037433;28;20103;-72
2021/05/04 08:58:46;;;;;;;9.05;4.10;;;20.30;58.50;;;;;;5056045;28;20104;-72
2021/05/04 09:01:12;;;;;;;8.85;4.60;;;20.30;58.10;;;;;;5056132;28;20049;-71
2021/05/04 09:06:26;;;;;;;5.75;3.33;;;20.50;57.50;;;;;;5056014;28;20029;-71
2021/05/04 09:08:57;;;;;;;5.10;3.47;;;20.50;56.10;;;;;;5055962;28;20449;-70
2021/05/04 09:11:33;;;;;;;5.85;3.38;;;20.60;53.50;;;;;;5037924;28;20128;-71
2021/05/04 09:21:56;;;;;;;8.77;3.40;;;21.00;56.40;;;;;;5017146;28;20488;-70
2021/05/04 09:24:30;;;;;;;4.38;3.42;;;21.30;53.90;;;;;;5055495;28;20033;-72
2021/05/04 09:27:06;;;;;;;9.40;3.25;;;21.40;53.50;;;;;;5037379;28;20053;-73
2021/05/04 09:29:40;;;;;;;8.18;3.88;;;21.70;54.80;;;;;;5037280;28;20127;-71
2021/05/04 09:32:24;;;;;;;10.85;4.32;;;21.90;57.00;;;;;;5055370;28;20040;-71
2021/05/04 09:34:55;;;;;;;7.65;4.30;;;22.00;52.00;;;;;;5055221;28;20037;-71
2021/05/04 09:37:28;;;;;;;10.63;4.20;;;22.10;52.30;;;;;;5055349;28;20029;-70
2021/05/04 09:39:56;;;;;;;6.30;4.00;;;22.40;54.00;;;;;;5055034;28;20025;-72
2021/05/04 09:42:29;;;;;;;5.93;3.70;;;22.40;48.80;;;;;;5036591;28;20036;-73
2021/05/04 09:44:58;;;;;;;10.18;3.72;;;22.60;55.00;;;;;;5055160;28;20135;-73
2021/05/04 09:47:25;;;;;;;10.98;3.97;;;22.50;50.10;;;;;;5054993;28;20082;-73
2021/05/04 09:49:52;;;;;;;32.13;4.95;;;22.50;48.70;;;;;;5036874;28;20377;-72
2021/05/04 09:55:00;;;;;;;7.88;4.43;;;22.80;51.30;;;;;;5054748;28;20090;-71
2021/05/04 09:57:36;;;;;;;7.22;3.80;;;23.00;47.60;;;;;;5054741;28;20041;-72
2021/05/04 10:00:05;;;;;;;35.20;4.80;;;23.10;51.30;;;;;;5054332;28;20029;-70
2021/05/04 10:02:31;;;;;;;7.72;3.65;;;23.40;51.40;;;;;;5054485;28;20035;-71
2021/05/04 10:05:01;;;;;;;11.10;3.83;;;23.40;48.70;;;;;;5036812;28;20036;-72
2021/05/04 10:07:29;;;;;;;4.55;3.53;;;23.70;48.50;;;;;;5036147;28;20487;-70
2021/05/04 10:09:55;;;;;;;7.07;2.85;;;23.70;47.00;;;;;;5033568;28;20389;-70
2021/05/04 10:12:21;;;;;;;6.22;3.03;;;24.00;49.80;;;;;;5057546;28;20025;-69
2021/05/04 10:14:51;;;;;;;6.13;3.40;;;24.20;48.00;;;;;;5054507;28;20094;-70
2021/05/04 10:17:17;;;;;;;5.82;3.42;;;24.30;47.90;;;;;;5036360;28;20031;-71
2021/05/04 10:19:44;;;;;;;4.53;3.58;;;24.40;49.80;;;;;;5054264;28;20043;-72
2021/05/04 10:22:11;;;;;;;4.22;2.92;;;24.80;50.90;;;;;;5053994;28;20529;-74
2021/05/04 10:24:41;;;;;;;6.18;2.72;;;25.00;44.30;;;;;;5054100;28;20023;-70
2021/05/04 10:27:09;;;;;;;6.47;3.50;;;25.40;46.80;;;;;;5036318;28;20048;-72
2021/05/04 10:29:37;;;;;;;20.83;3.72;;;25.80;44.60;;;;;;5054018;28;20470;-72
2021/05/04 10:32:04;;;;;;;7.45;3.03;;;26.40;46.60;;;;;;5035908;28;20039;-69
2021/05/04 10:34:32;;;;;;;6.00;2.95;;;;;;;;;;5036145;28;20083;-72
2021/05/04 10:37:03;;;;;;;6.72;2.80;;;;;;;;;;5051385;28;20508;-72
2021/05/04 10:39:37;;;;;;;14.50;3.20;;;;;;;;;;5053511;28;20056;-71
2021/05/04 10:42:05;;;;;;;5.75;2.97;;;;;;;;;;5054031;28;20112;-71
2021/05/04 10:44:32;;;;;;;56.47;5.15;;;;;;;;;;5053128;28;20021;-72
2021/05/04 10:46:58;;;;;;;4.07;2.40;;;;;;;;;;5051818;28;20028;-73
2021/05/04 10:49:44;;;;;;;10.65;3.47;;;;;;;;;;5033938;28;20043;-72
2021/05/04 10:52:10;;;;;;;11.50;3.05;;;;;;;;;;5032251;28;20409;-73
2021/05/04 10:54:55;;;;;;;10.05;2.60;;;;;;;;;;5047619;28;20021;-71
2021/05/04 10:57:21;;;;;;;6.43;2.60;;;;;;;;;;5064844;28;20532;-73
2021/05/04 10:59:49;;;;;;;7.28;2.58;;;;;;;;;;5035195;28;20064;-71
2021/05/04 11:02:15;;;;;;;2.95;2.28;;;;;;;;;;5036054;28;20033;-72
2021/05/04 11:04:53;;;;;;;4.85;2.60;;;;;;;;;;5050934;28;20117;-72
2021/05/04 11:07:38;;;;;;;4.60;2.70;;;;;;;;;;5035543;28;20069;-72
2021/05/04 11:10:14;;;;;;;5.57;2.38;;;;;;;;;;5047190;28;20025;-73
2021/05/04 11:12:40;;;;;;;4.03;2.50;;;;;;;;;;5035848;28;20119;-73
2021/05/04 11:15:22;;;;;;;4.32;2.20;;;;;;;;;;5035797;28;20099;-72
2021/05/04 11:17:48;;;;;;;4.60;2.50;;;;;;;;;;5053217;28;20477;-74
2021/05/04 11:20:32;;;;;;;5.82;2.47;;;;;;;;;;5035646;28;20432;-74
2021/05/04 11:22:59;;;;;;;5.28;2.60;;;;;;;;;;5053079;28;20021;-74
2021/05/04 11:25:43;;;;;;;3.30;2.25;;;;;;;;;;5053609;28;20037;-72
2021/05/04 11:28:10;;;;;;;7.32;2.50;;;;;;;;;;5053385;28;20024;-71
2021/05/04 11:30:45;;;;;;;3.47;2.78;;;;;;;;;;5053253;28;20029;-74
2021/05/04 11:33:31;;;;;;;5.60;2.15;;;;;;;;;;5053123;28;20078;-71
2021/05/04 11:35:58;;;;;;;6.03;2.80;;;;;;;;;;5052938;28;20124;-73
2021/05/04 11:38:25;;;;;;;5.05;2.85;;;;;;;;;;5035249;28;20035;-73
2021/05/04 11:40:52;;;;;;;7.78;3.63;;;;;;;;;;5053112;28;20567;-74
2021/05/04 11:43:21;;;;;;;5.13;2.20;;;;;;;;;;5051372;28;20033;-72
2021/05/04 11:45:48;;;;;;;2.47;2.08;;;;;;;;;;5052396;28;20064;-74
2021/05/04 11:48:15;;;;;;;3.90;1.90;;;;;;;;;;5034946;28;20039;-73
2021/05/04 11:50:43;;;;;;;5.82;2.10;;;;;;;;;;5034897;28;20020;-74
2021/05/04 11:53:10;;;;;;;9.10;2.50;;;;;;;;;;5053015;28;20021;-73
2021/05/04 11:55:39;;;;;;;5.22;2.45;;;;;;;;;;5052964;28;20059;-73
2021/05/04 11:58:10;;;;;;;5.30;2.60;;;;;;;;;;5052780;28;20078;-72
2021/05/04 12:00:38;;;;;;;3.22;2.13;;;;;;;;;;5052542;28;20493;-74
2021/05/04 12:03:11;;;;;;;4.10;2.10;;;;;;;;;;5052466;28;20025;-74
2021/05/04 12:05:38;;;;;;;8.77;2.75;;;;;;;;;;5052653;28;20131;-73
2021/05/04 12:08:05;;;;;;;3.60;2.42;;;;;;;;;;5052615;28;20111;-73
2021/05/04 12:10:41;;;;;;;3.30;1.83;;;;;;;;;;5052690;28;20341;-72
2021/05/04 12:13:08;;;;;;;8.23;2.70;;;;;;;;;;5052722;28;20021;-73
2021/05/04 12:15:43;;;;;;;2.92;2.63;;;38.70;28.90;;;;;;5052460;28;20481;-73
2021/05/04 12:18:11;;;;;;;3.38;2.30;;;38.80;28.20;;;;;;5052407;28;20029;-73
2021/05/04 12:20:50;;;;;;;2.90;2.00;;;38.90;27.70;;;;;;5051641;28;20056;-73
2021/05/04 12:23:36;;;;;;;3.60;1.95;;;39.20;28.30;;;;;;5034711;28;20117;-74
2021/05/04 12:26:08;;;;;;;3.25;2.10;;;39.30;27.00;;;;;;5052622;28;20021;-73
2021/05/04 12:28:47;;;;;;;5.28;2.72;;;39.80;27.50;;;;;;5052602;28;20052;-73
2021/05/04 12:31:19;;;;;;;5.55;2.47;;;39.90;27.70;;;;;;5052802;28;20094;-71
2021/05/04 12:33:47;;;;;;;3.28;2.10;;;39.50;27.30;;;;;;5052615;28;20037;-72
2021/05/04 12:36:19;;;;;;;2.55;1.90;;;39.80;27.40;;;;;;5052780;28;20032;-73
2021/05/04 12:38:51;;;;;;;4.18;2.00;;;40.00;27.00;;;;;;5052477;28;20178;-73
2021/05/04 12:41:24;;;;;;;3.85;2.35;;;40.30;28.10;;;;;;5052451;28;20032;-71
2021/05/04 12:44:02;;;;;;;2.47;2.22;;;40.60;26.80;;;;;;5052519;28;20036;-73
2021/05/04 12:46:31;;;;;;;5.07;1.98;;;39.80;27.50;;;;;;5052322;28;20044;-73
2021/05/04 12:48:59;;;;;;;4.85;2.10;;;40.50;26.60;;;;;;5052250;28;20023;-72
2021/05/04 12:51:28;;;;;;;9.02;1.73;;;40.90;26.60;;;;;;5052310;28;20032;-71
2021/05/04 12:54:09;;;;;;;3.25;2.85;;;40.90;27.00;;;;;;5034415;28;20060;-72
2021/05/04 12:56:35;;;;;;;4.10;2.42;;;41.40;26.70;;;;;;5052016;28;20071;-72
2021/05/04 12:59:06;;;;;;;2.65;2.20;;;41.40;26.40;;;;;;5052612;28;20445;-73
2021/05/04 13:01:35;;;;;;;3.80;2.20;;;42.00;26.80;;;;;;5055202;28;20116;-72
2021/05/04 13:04:03;;;;;;;2.97;2.17;;;41.90;26.30;;;;;;5056055;28;20082;-70
2021/05/04 13:06:50;;;;;;;2.50;1.77;;;42.10;26.20;;;;;;5055997;28;20351;-69
2021/05/04 13:12:22;;;;;;;1.85;1.75;;;42.30;35.50;;;;;;5037996;28;20144;-69
2021/05/04 13:15:03;;;;;;;8.18;2.03;;;41.90;26.70;;;;;;5055604;28;20397;-74
2021/05/04 13:28:32;;;;;;;2.50;1.75;;;42.60;25.40;;;;;;5055583;28;20493;-70
2021/05/04 13:30:58;;;;;;;5.03;2.05;;;42.50;25.80;;;;;;5037625;28;20075;-71
2021/05/04 13:33:24;;;;;;;5.53;2.13;;;42.80;25.80;;;;;;5070907;28;20033;-70
2021/05/04 13:36:11;;;;;;;2.22;2.00;;;42.80;26.30;;;;;;5055464;28;20033;-71